Time;durP1;ratioP1;P1;durP2;ratioP2;P2;SDS_P1;SDS_P2;PMS_P1;PMS_P2;Temp;Humidity;BMP_temperature;BMP_pressure;BME280_temperature;BME280_humidity;BME280_pressure;Samples;Min_cycle;Max_cycle;Signal;HPM_P1;HPM_P2
2021/12/19 00:09:17;;;;;;;0.10;0.10;;;;;;;3.96;90.42;103904.81;5000512;28;20088;-76
2021/12/19 00:11:43;;;;;;;0.20;0.20;;;;;;;3.97;90.39;103898.84;5009342;28;20144;-75
2021/12/19 00:14:09;;;;;;;0.10;0.10;;;;;;;3.98;90.49;103900.69;5019380;28;20029;-75
2021/12/19 00:16:34;;;;;;;0.00;0.00;;;;;;;3.97;90.70;103890.16;5019062;28;20052;-75
2021/12/19 00:18:59;;;;;;;0.03;0.03;;;;;;;4.01;90.51;103883.59;5019486;28;20026;-75
2021/12/19 00:21:28;;;;;;;0.10;0.10;;;;;;;4.02;90.59;103876.00;5018763;28;20026;-75
2021/12/19 00:23:54;;;;;;;0.07;0.07;;;;;;;4.04;90.74;103874.47;5019639;28;20025;-75
2021/12/19 00:26:19;;;;;;;0.00;0.00;;;;;;;4.06;90.64;103877.22;5019040;28;20041;-76
2021/12/19 00:28:46;;;;;;;0.03;0.03;;;;;;;4.07;90.29;103885.19;5018777;28;20044;-75
2021/12/19 00:31:11;;;;;;;0.20;0.20;;;;;;;4.08;90.71;103880.91;5019306;28;20411;-75
2021/12/19 00:33:38;;;;;;;0.10;0.10;;;;;;;4.10;90.87;103880.31;5019093;28;20026;-75
2021/12/19 00:36:05;;;;;;;0.00;0.00;;;;;;;4.11;91.05;103873.44;5019332;28;20439;-76
2021/12/19 00:38:30;;;;;;;0.00;0.00;;;;;;;4.12;90.65;103878.78;5018295;28;20041;-75
2021/12/19 00:40:56;;;;;;;0.03;0.03;;;;;;;4.13;90.84;103875.41;5019188;28;20042;-76
2021/12/19 00:46:25;;;;;;;0.07;0.07;;;;;;;4.14;90.74;103860.78;4958976;29;20045;-76
2021/12/19 00:48:55;;;;;;;0.00;0.00;;;;;;;4.16;91.01;103866.16;4991403;28;20030;-75
2021/12/19 00:51:22;;;;;;;0.03;0.03;;;;;;;4.17;91.03;103858.50;4998261;28;20033;-76
2021/12/19 00:53:49;;;;;;;0.00;0.00;;;;;;;4.20;90.94;103850.13;4999460;28;20384;-75
2021/12/19 00:56:15;;;;;;;0.00;0.00;;;;;;;4.21;91.03;103852.88;5012972;28;20029;-75
2021/12/19 00:58:41;;;;;;;0.07;0.07;;;;;;;4.25;90.89;103846.31;5018242;28;20029;-75
2021/12/19 01:01:08;;;;;;;0.00;0.00;;;;;;;4.28;91.00;103845.72;5018891;28;20136;-76
2021/12/19 01:03:33;;;;;;;0.00;0.00;;;;;;;4.32;90.98;103847.88;5017596;28;20044;-75
2021/12/19 01:05:59;;;;;;;0.00;0.00;;;;;;;4.34;91.02;103839.47;5018815;28;20041;-75
2021/12/19 01:08:25;;;;;;;0.10;0.10;;;;;;;4.36;90.99;103832.75;5018564;28;20072;-76
2021/12/19 01:10:51;;;;;;;0.00;0.00;;;;;;;4.39;90.99;103845.13;5019020;28;20026;-76
2021/12/19 01:13:18;;;;;;;0.00;0.00;;;;;;;4.41;90.96;103841.00;5017722;28;20045;-75
2021/12/19 01:15:43;;;;;;;0.00;0.00;;;;;;;4.41;91.14;103830.63;5017872;28;20030;-76
2021/12/19 01:18:09;;;;;;;0.00;0.00;;;;;;;4.43;91.13;103833.41;5018226;28;20148;-75
2021/12/19 01:20:37;;;;;;;0.00;0.00;;;;;;;4.42;90.97;103822.09;5019030;28;20053;-76
2021/12/19 01:23:04;;;;;;;0.10;0.10;;;;;;;4.42;91.20;103827.28;5018122;28;20400;-75
2021/12/19 01:25:29;;;;;;;0.10;0.10;;;;;;;4.41;91.22;103833.22;5017382;28;20018;-75
2021/12/19 01:27:55;;;;;;;0.10;0.10;;;;;;;4.43;91.30;103825.59;5018458;28;20061;-75
2021/12/19 01:30:20;;;;;;;0.00;0.00;;;;;;;4.44;91.03;103830.97;5017903;28;20125;-75
2021/12/19 01:32:46;;;;;;;0.10;0.10;;;;;;;4.42;90.97;103828.97;5018408;28;20042;-75
2021/12/19 01:35:13;;;;;;;0.00;0.00;;;;;;;4.42;90.82;103828.97;5018376;28;20129;-76
2021/12/19 01:37:39;;;;;;;0.00;0.00;;;;;;;4.43;91.28;103826.53;5017594;28;20029;-76
2021/12/19 01:40:06;;;;;;;0.00;0.00;;;;;;;4.45;91.09;103830.19;5018374;28;20029;-76
2021/12/19 01:42:34;;;;;;;0.00;0.00;;;;;;;4.45;91.20;103826.66;5018543;28;20034;-76
2021/12/19 01:45:00;;;;;;;0.10;0.10;;;;;;;4.47;91.00;103825.13;5017778;28;20088;-76
2021/12/19 01:47:26;;;;;;;0.00;0.00;;;;;;;4.47;90.71;103814.75;5018052;28;20101;-77
2021/12/19 01:49:52;;;;;;;0.10;0.10;;;;;;;4.49;91.12;103813.25;5017373;28;20133;-76
2021/12/19 01:52:18;;;;;;;0.07;0.07;;;;;;;4.51;91.19;103816.91;5017570;28;20022;-75
2021/12/19 01:54:45;;;;;;;0.00;0.00;;;;;;;4.51;91.14;103804.88;5017902;28;20029;-74
2021/12/19 01:57:10;;;;;;;0.10;0.10;;;;;;;4.53;91.26;103813.72;5018021;28;20026;-76
2021/12/19 01:59:36;;;;;;;0.00;0.00;;;;;;;4.56;91.33;103809.59;5017372;28;20029;-75
2021/12/19 02:02:01;;;;;;;0.00;0.00;;;;;;;4.59;91.31;103808.22;5018232;28;20244;-75
2021/12/19 02:04:30;;;;;;;0.10;0.10;;;;;;;4.63;91.25;103806.84;5017696;28;20045;-76
2021/12/19 02:06:55;;;;;;;0.00;0.00;;;;;;;4.68;91.42;103810.84;5017569;28;20041;-75
2021/12/19 02:09:21;;;;;;;0.00;0.00;;;;;;;4.70;91.30;103806.72;5017779;28;20022;-75
2021/12/19 02:11:46;;;;;;;0.00;0.00;;;;;;;4.74;91.12;103810.53;5017575;28;20144;-75
2021/12/19 02:14:12;;;;;;;0.00;0.00;;;;;;;4.76;91.41;103809.94;5016619;28;20140;-75
2021/12/19 02:16:39;;;;;;;0.00;0.00;;;;;;;4.80;91.36;103808.56;5017659;28;20057;-76
2021/12/19 02:19:05;;;;;;;0.00;0.00;;;;;;;4.84;91.45;103802.88;5017750;28;20017;-75
2021/12/19 02:21:31;;;;;;;0.00;0.00;;;;;;;4.86;91.36;103803.94;5016526;28;20040;-77
2021/12/19 02:23:57;;;;;;;0.00;0.00;;;;;;;4.89;91.52;103792.94;5016877;28;20049;-76
2021/12/19 02:26:23;;;;;;;0.00;0.00;;;;;;;4.93;91.16;103797.69;5017442;28;20296;-76
2021/12/19 02:28:48;;;;;;;0.00;0.00;;;;;;;4.91;91.36;103784.56;5016083;28;20021;-75
2021/12/19 02:31:14;;;;;;;0.00;0.00;;;;;;;4.92;91.12;103782.88;5017934;28;20044;-76
2021/12/19 02:33:43;;;;;;;0.00;0.00;;;;;;;4.95;91.48;103784.09;5017473;28;20065;-75
2021/12/19 02:36:26;;;;;;;0.00;0.00;;;;;;;4.96;91.33;103785.00;5017431;28;20018;-76
2021/12/19 02:49:47;;;;;;;0.00;0.00;;;;;;;5.04;91.36;103773.69;5017394;28;20041;-76
2021/12/19 02:52:16;;;;;;;0.00;0.00;;;;;;;5.06;91.42;103773.84;5017611;28;20296;-75
2021/12/19 02:54:42;;;;;;;0.00;0.00;;;;;;;5.08;91.58;103772.31;5016923;28;20021;-76
2021/12/19 02:57:08;;;;;;;0.00;0.00;;;;;;;5.08;91.65;103772.31;5016658;28;20038;-77
2021/12/19 02:59:34;;;;;;;0.03;0.03;;;;;;;5.11;91.81;103767.41;5016532;28;20033;-76
2021/12/19 03:01:59;;;;;;;0.00;0.00;;;;;;;5.14;91.53;103766.78;5016399;28;20049;-76
2021/12/19 03:04:25;;;;;;;0.07;0.07;;;;;;;5.16;91.36;103766.19;5016695;28;20021;-77
2021/12/19 03:06:50;;;;;;;0.00;0.00;;;;;;;5.13;91.62;103755.50;5017193;28;20059;-77
2021/12/19 03:09:34;;;;;;;0.00;0.00;;;;;;;5.12;91.36;103753.69;5017103;28;20049;-76
2021/12/19 03:12:12;;;;;;;0.00;0.00;;;;;;;5.14;91.40;103752.13;5001522;28;20295;-76
2021/12/19 03:20:07;;;;;;;0.00;0.00;;;;;;;5.15;91.48;103725.38;4997056;28;20041;-75
2021/12/19 03:22:33;;;;;;;0.00;0.00;;;;;;;5.16;91.40;103726.31;4996684;28;20030;-76
2021/12/19 03:24:58;;;;;;;0.00;0.00;;;;;;;5.15;91.54;103722.78;4998851;28;20034;-75
2021/12/19 03:27:24;;;;;;;0.00;0.00;;;;;;;5.15;91.38;103717.59;5017136;28;20033;-75
2021/12/19 03:29:49;;;;;;;0.00;0.00;;;;;;;5.16;91.32;103711.63;5015832;28;20363;-75
2021/12/19 03:32:14;;;;;;;0.00;0.00;;;;;;;5.16;91.14;103705.53;5016317;28;20111;-76
2021/12/19 03:34:40;;;;;;;0.00;0.00;;;;;;;5.17;91.97;103697.84;5016472;28;20103;-75
2021/12/19 03:37:06;;;;;;;0.00;0.00;;;;;;;5.18;91.45;103696.19;5016339;28;20042;-76
2021/12/19 03:39:44;;;;;;;0.00;0.00;;;;;;;5.20;91.50;103692.97;5016467;28;20037;-75
2021/12/19 03:42:10;;;;;;;0.00;0.00;;;;;;;5.20;91.37;103692.06;5017212;28;20452;-76
2021/12/19 03:44:35;;;;;;;0.00;0.00;;;;;;;5.21;91.72;103692.22;5016285;28;20074;-75
2021/12/19 03:47:01;;;;;;;0.00;0.00;;;;;;;5.23;91.71;103690.66;5016796;28;20045;-75
2021/12/19 03:49:27;;;;;;;0.00;0.00;;;;;;;5.24;91.54;103691.59;5016431;28;20200;-76
2021/12/19 03:51:52;;;;;;;0.00;0.00;;;;;;;5.24;91.36;103691.59;5017085;28;20040;-76
2021/12/19 03:54:18;;;;;;;0.00;0.00;;;;;;;5.25;91.37;103687.28;5016549;28;20048;-76
2021/12/19 03:56:43;;;;;;;0.00;0.00;;;;;;;5.26;91.01;103686.53;5015446;28;20033;-75
2021/12/19 03:59:09;;;;;;;0.00;0.00;;;;;;;5.27;91.71;103691.88;5016069;28;20037;-77
2021/12/19 04:01:35;;;;;;;0.00;0.00;;;;;;;5.27;91.59;103686.69;5016128;28;20037;-77
2021/12/19 04:04:01;;;;;;;0.00;0.00;;;;;;;5.28;91.49;103677.22;5015861;28;20392;-75
2021/12/19 04:06:26;;;;;;;0.00;0.00;;;;;;;5.27;91.46;103676.28;5015380;28;20128;-76
2021/12/19 04:08:52;;;;;;;0.00;0.00;;;;;;;5.30;91.54;103673.97;5016284;28;20036;-76
2021/12/19 04:11:18;;;;;;;0.00;0.00;;;;;;;5.30;91.58;103668.78;5016634;28;20022;-77
2021/12/19 04:13:43;;;;;;;0.00;0.00;;;;;;;5.31;91.56;103665.44;5015991;28;20460;-77
2021/12/19 04:16:09;;;;;;;0.00;0.00;;;;;;;5.33;91.55;103655.16;5016090;28;20117;-76
2021/12/19 04:18:34;;;;;;;0.00;0.00;;;;;;;5.34;91.52;103652.72;5016193;28;20439;-76
2021/12/19 04:20:59;;;;;;;0.00;0.00;;;;;;;5.37;91.49;103649.50;5015828;28;20032;-77
2021/12/19 04:23:30;;;;;;;0.00;0.00;;;;;;;5.37;91.58;103644.31;5015738;28;20138;-77
2021/12/19 04:25:56;;;;;;;0.00;0.00;;;;;;;5.41;91.61;103642.91;5016362;28;20041;-76
2021/12/19 04:28:21;;;;;;;0.00;0.00;;;;;;;5.39;91.62;103637.56;5015762;28;20025;-77
2021/12/19 04:30:46;;;;;;;0.00;0.00;;;;;;;5.41;91.54;103642.91;5016189;28;20037;-76
2021/12/19 04:33:13;;;;;;;0.03;0.03;;;;;;;5.40;91.71;103648.88;5016235;28;20034;-78
2021/12/19 04:35:42;;;;;;;0.00;0.00;;;;;;;5.42;91.92;103648.22;5015290;28;20048;-77
2021/12/19 04:41:41;;;;;;;0.00;0.00;;;;;;;5.42;91.46;103636.94;5015332;28;20088;-76
2021/12/19 04:59:53;;;;;;;0.00;0.00;;;;;;;5.49;91.63;103622.03;5018208;28;20029;-76
2021/12/19 05:15:51;;;;;;;0.00;0.00;;;;;;;5.58;91.57;103639.28;5005615;28;20118;-76
2021/12/19 05:18:19;;;;;;;0.00;0.00;;;;;;;5.54;91.51;103640.66;5018673;28;20045;-77
2021/12/19 05:20:57;;;;;;;0.00;0.00;;;;;;;5.52;91.40;103634.44;5018235;28;20032;-77
2021/12/19 05:23:34;;;;;;;0.00;0.00;;;;;;;5.50;91.98;103634.28;5019155;28;20033;-76
2021/12/19 05:26:00;;;;;;;0.00;0.00;;;;;;;5.48;91.41;103633.22;5018005;28;20030;-76
2021/12/19 05:28:26;;;;;;;0.00;0.00;;;;;;;5.49;91.54;103637.66;5017516;28;20029;-76
2021/12/19 05:30:51;;;;;;;0.00;0.00;;;;;;;5.50;91.53;103641.16;5018903;28;20030;-78
2021/12/19 05:33:17;;;;;;;0.00;0.00;;;;;;;5.49;91.27;103644.53;5018103;28;20042;-77
2021/12/19 05:46:55;;;;;;;0.00;0.00;;;;;;;5.48;91.26;103624.53;4995073;28;20048;-77
2021/12/19 05:49:20;;;;;;;0.00;0.00;;;;;;;5.46;91.31;103623.44;5017774;28;20033;-76
2021/12/19 05:51:46;;;;;;;0.00;0.00;;;;;;;5.46;91.61;103626.03;5018257;28;20080;-76
2021/12/19 05:54:12;;;;;;;0.00;0.00;;;;;;;5.47;91.24;103631.41;5017536;28;20104;-78
2021/12/19 05:56:38;;;;;;;0.00;0.00;;;;;;;5.47;91.47;103622.66;5017213;28;20120;-76
2021/12/19 05:59:03;;;;;;;0.00;0.00;;;;;;;5.48;91.24;103614.13;5015886;28;20389;-75
2021/12/19 06:01:29;;;;;;;0.00;0.00;;;;;;;5.48;91.52;103622.81;5018039;28;20064;-75
2021/12/19 06:03:54;;;;;;;0.00;0.00;;;;;;;5.47;91.24;103613.19;5017648;28;20026;-75
2021/12/19 06:06:20;;;;;;;0.00;0.00;;;;;;;5.48;91.69;103614.13;5017423;28;20049;-76
2021/12/19 06:08:46;;;;;;;0.00;0.00;;;;;;;5.46;91.45;103602.66;5017734;28;20037;-75
2021/12/19 06:11:11;;;;;;;0.00;0.00;;;;;;;5.46;91.22;103605.25;5017446;28;20068;-75
2021/12/19 06:13:37;;;;;;;0.00;0.00;;;;;;;5.48;91.26;103606.34;5017143;28;20037;-77
2021/12/19 06:16:08;;;;;;;0.00;0.00;;;;;;;5.46;91.24;103600.97;5017772;28;20079;-77
2021/12/19 06:18:33;;;;;;;0.00;0.00;;;;;;;5.47;91.49;103607.06;5017618;28;20029;-75
2021/12/19 06:20:58;;;;;;;0.00;0.00;;;;;;;5.47;91.49;103602.81;5017902;28;20022;-76
2021/12/19 06:23:24;;;;;;;0.00;0.00;;;;;;;5.48;91.01;103593.34;5016901;28;20022;-77
2021/12/19 06:25:49;;;;;;;0.00;0.00;;;;;;;5.46;91.31;103593.19;5017444;28;20072;-77
2021/12/19 06:28:15;;;;;;;0.00;0.00;;;;;;;5.47;91.58;103591.47;5017170;28;20029;-76
2021/12/19 06:30:41;;;;;;;0.00;0.00;;;;;;;5.46;91.38;103597.44;5016691;28;20030;-75
2021/12/19 06:33:07;;;;;;;0.00;0.00;;;;;;;5.48;91.42;103601.13;5017804;28;20060;-76
2021/12/19 06:35:32;;;;;;;0.10;0.10;;;;;;;5.49;91.28;103598.66;5016693;28;20030;-76
2021/12/19 06:37:58;;;;;;;0.00;0.00;;;;;;;5.48;91.37;103586.44;5049930;28;20340;-76
2021/12/19 06:40:23;;;;;;;0.00;0.00;;;;;;;5.50;91.42;103584.00;5016461;28;20105;-76
2021/12/19 06:42:49;;;;;;;0.00;0.00;;;;;;;5.49;91.42;103580.47;5017109;28;20033;-76
2021/12/19 06:45:15;;;;;;;0.00;0.00;;;;;;;5.53;91.51;103580.75;5016303;28;20085;-77
2021/12/19 06:47:41;;;;;;;0.00;0.00;;;;;;;5.52;91.45;103573.75;5016894;28;20068;-75
2021/12/19 06:50:07;;;;;;;0.00;0.00;;;;;;;5.52;91.16;103578.94;5016319;28;20104;-75
2021/12/19 06:52:33;;;;;;;0.00;0.00;;;;;;;5.52;91.32;103571.16;5009573;28;20041;-76
2021/12/19 06:54:58;;;;;;;0.07;0.07;;;;;;;5.50;91.24;103574.47;5015793;28;20304;-76
2021/12/19 06:57:24;;;;;;;0.10;0.10;;;;;;;5.49;91.39;103569.16;5006200;28;20030;-75
2021/12/19 06:59:49;;;;;;;0.00;0.00;;;;;;;5.50;91.41;103574.47;5015009;28;20030;-74
2021/12/19 07:02:16;;;;;;;0.00;0.00;;;;;;;5.49;91.19;103559.66;5017559;28;20038;-75
2021/12/19 07:04:45;;;;;;;0.00;0.00;;;;;;;5.48;91.37;103559.53;5016029;28;20028;-74
2021/12/19 07:07:12;;;;;;;0.00;0.00;;;;;;;5.44;91.02;103566.16;5016869;28;20029;-74
2021/12/19 07:09:38;;;;;;;0.00;0.00;;;;;;;5.43;91.18;103566.00;5016696;28;20399;-75
2021/12/19 07:12:05;;;;;;;0.00;0.00;;;;;;;5.39;90.92;103561.25;5016132;28;20061;-75
2021/12/19 07:14:31;;;;;;;0.00;0.00;;;;;;;5.36;91.09;103557.63;5016357;28;20030;-75
2021/12/19 07:16:56;;;;;;;0.00;0.00;;;;;;;5.38;91.15;103564.63;5016255;28;20052;-75
2021/12/19 07:19:21;;;;;;;0.00;0.00;;;;;;;5.38;91.16;103557.78;5016772;28;20030;-75
2021/12/19 07:21:47;;;;;;;0.00;0.00;;;;;;;5.34;91.57;103564.38;5016814;28;20079;-75
2021/12/19 07:24:12;;;;;;;0.00;0.00;;;;;;;5.38;91.22;103559.44;5015421;28;20359;-74
2021/12/19 07:26:37;;;;;;;0.00;0.00;;;;;;;5.36;90.97;103568.00;5016520;28;20064;-75
2021/12/19 07:29:03;;;;;;;0.00;0.00;;;;;;;5.34;91.15;103559.16;5015253;28;20258;-74
2021/12/19 07:31:30;;;;;;;0.00;0.00;;;;;;;5.35;91.21;103557.47;5015723;28;20193;-74
2021/12/19 07:33:57;;;;;;;0.00;0.00;;;;;;;5.34;91.27;103558.25;5016303;28;20022;-75
2021/12/19 07:36:25;;;;;;;0.00;0.00;;;;;;;5.33;91.12;103564.22;5016077;28;20022;-76
2021/12/19 07:38:58;;;;;;;0.00;0.00;;;;;;;5.30;91.06;103554.44;5015138;28;20041;-74
2021/12/19 07:46:13;;;;;;;0.00;0.00;;;;;;;5.33;91.14;103561.59;5092878;27;1226899;-76
2021/12/19 07:48:38;;;;;;;0.00;0.00;;;;;;;5.33;91.22;103561.59;5095947;28;20294;-74
2021/12/19 07:51:03;;;;;;;0.00;0.00;;;;;;;5.31;91.39;103556.28;5114138;28;20043;-75
2021/12/19 07:53:29;;;;;;;0.00;0.00;;;;;;;5.32;91.16;103557.19;5079185;28;20034;-76
2021/12/19 07:55:55;;;;;;;0.00;0.00;;;;;;;5.33;90.96;103559.94;5113910;28;20043;-76
2021/12/19 07:58:20;;;;;;;0.00;0.00;;;;;;;5.38;91.07;103556.84;5096453;28;20447;-75
2021/12/19 08:00:45;;;;;;;0.00;0.00;;;;;;;5.38;91.37;103565.56;5114002;28;20118;-75
2021/12/19 08:03:11;;;;;;;0.00;0.00;;;;;;;5.40;91.23;103560.53;5096163;28;20036;-75
2021/12/19 08:05:36;;;;;;;0.00;0.00;;;;;;;5.41;91.29;103555.44;5078953;28;20089;-77
2021/12/19 08:08:04;;;;;;;0.00;0.00;;;;;;;5.42;91.07;103554.66;5095713;28;20036;-76
2021/12/19 08:12:59;;;;;;;0.00;0.00;;;;;;;5.43;91.06;103547.78;5096498;28;20068;-75
2021/12/19 08:15:25;;;;;;;0.00;0.00;;;;;;;5.46;91.04;103554.19;5112508;28;20471;-75
2021/12/19 08:17:50;;;;;;;0.00;0.00;;;;;;;5.44;91.13;103553.16;5095371;28;20118;-75
2021/12/19 08:20:17;;;;;;;0.10;0.10;;;;;;;5.47;91.41;103547.28;5078547;28;20339;-75
2021/12/19 08:22:43;;;;;;;0.00;0.00;;;;;;;5.47;91.31;103545.63;5113361;28;20023;-75
2021/12/19 08:25:09;;;;;;;0.00;0.00;;;;;;;5.49;91.19;103537.97;5094952;28;20031;-75
2021/12/19 08:27:36;;;;;;;0.00;0.00;;;;;;;5.50;90.72;103534.59;5095578;28;20031;-76
2021/12/19 08:30:04;;;;;;;0.00;0.00;;;;;;;5.49;91.02;103531.06;5112844;28;20028;-75
2021/12/19 08:32:29;;;;;;;0.00;0.00;;;;;;;5.48;90.90;103529.25;5095249;28;20051;-76
2021/12/19 08:34:54;;;;;;;0.00;0.00;;;;;;;5.52;91.09;103535.66;5113280;28;20024;-76
2021/12/19 08:37:20;;;;;;;0.00;0.00;;;;;;;5.53;90.81;103536.56;5078726;28;20032;-75
2021/12/19 08:39:46;;;;;;;0.00;0.00;;;;;;;5.52;90.93;103534.75;5092730;28;20051;-75
2021/12/19 08:42:11;;;;;;;0.00;0.00;;;;;;;5.54;91.12;103536.69;5093041;28;20024;-75
2021/12/19 08:44:37;;;;;;;0.00;0.00;;;;;;;5.56;91.02;103527.38;5050396;28;20033;-75
2021/12/19 08:47:04;;;;;;;0.00;0.00;;;;;;;5.55;90.83;103530.72;5055018;28;20037;-75
2021/12/19 08:49:29;;;;;;;0.00;0.00;;;;;;;5.57;90.92;103533.47;5088452;28;20289;-75
2021/12/19 08:51:54;;;;;;;0.00;0.00;;;;;;;5.58;90.77;103530.09;5092183;28;20040;-75
2021/12/19 08:54:20;;;;;;;0.00;0.00;;;;;;;5.59;90.88;103530.25;5092349;28;20028;-75
2021/12/19 08:56:45;;;;;;;0.00;0.00;;;;;;;5.62;90.85;103534.81;5082709;28;20036;-75
2021/12/19 08:59:11;;;;;;;0.00;0.00;;;;;;;5.64;90.97;103523.78;5061165;28;20347;-77
2021/12/19 09:01:37;;;;;;;0.00;0.00;;;;;;;5.66;90.79;103533.41;5078684;28;20028;-76
2021/12/19 09:04:03;;;;;;;0.03;0.03;;;;;;;5.67;90.38;103524.84;5044577;28;20036;-76
2021/12/19 09:06:28;;;;;;;0.00;0.00;;;;;;;5.67;90.69;103525.72;5044594;28;20020;-77
2021/12/19 09:08:54;;;;;;;0.00;0.00;;;;;;;5.70;90.52;103520.84;5042258;28;20394;-76
2021/12/19 09:11:19;;;;;;;0.00;0.00;;;;;;;5.72;90.68;103526.19;5058777;28;20044;-76
2021/12/19 09:13:45;;;;;;;0.10;0.10;;;;;;;5.72;90.71;103519.28;5040414;28;20067;-74
2021/12/19 09:16:10;;;;;;;0.00;0.00;;;;;;;5.76;90.67;103528.28;5041272;28;20588;-76
2021/12/19 09:18:36;;;;;;;0.00;0.00;;;;;;;5.75;90.76;103529.06;5058494;28;20303;-77
2021/12/19 09:21:01;;;;;;;0.00;0.00;;;;;;;5.74;90.65;103524.63;5041535;28;20025;-77
2021/12/19 09:23:27;;;;;;;0.00;0.00;;;;;;;5.74;90.35;103525.53;5058084;28;20032;-76
2021/12/19 09:25:53;;;;;;;0.00;0.00;;;;;;;5.73;90.42;103528.91;5073848;28;20021;-75
2021/12/19 09:28:18;;;;;;;0.07;0.07;;;;;;;5.74;90.29;103522.91;5076982;28;20028;-74
2021/12/19 09:30:45;;;;;;;0.00;0.00;;;;;;;5.76;90.39;103520.47;5077898;28;20662;-75
2021/12/19 09:33:10;;;;;;;0.00;0.00;;;;;;;5.77;90.27;103518.03;5078170;28;20036;-76
2021/12/19 09:35:36;;;;;;;0.00;0.00;;;;;;;5.78;90.04;103522.44;5060858;28;20024;-74
2021/12/19 09:38:03;;;;;;;0.10;0.10;;;;;;;5.77;90.13;103519.69;5078289;28;20124;-76
2021/12/19 09:40:34;;;;;;;0.00;0.00;;;;;;;5.76;90.07;103525.69;5077961;28;20043;-75
2021/12/19 09:43:03;;;;;;;0.10;0.10;;;;;;;5.78;90.26;103525.03;5078102;28;20103;-76
2021/12/19 09:45:30;;;;;;;0.00;0.00;;;;;;;5.77;90.10;103518.03;5077367;28;20056;-77
2021/12/19 09:47:56;;;;;;;0.00;0.00;;;;;;;5.78;90.29;103516.31;5078693;28;20367;-77
2021/12/19 09:50:21;;;;;;;0.10;0.10;;;;;;;5.76;90.10;103521.41;5078251;28;20039;-75
2021/12/19 09:52:47;;;;;;;0.00;0.00;;;;;;;5.80;90.19;103520.00;5060478;28;20028;-76
2021/12/19 09:55:17;;;;;;;0.00;0.00;;;;;;;5.87;90.26;103513.66;5077564;28;20032;-76
2021/12/19 09:57:43;;;;;;;0.10;0.10;;;;;;;5.90;90.23;103520.03;5060269;28;20268;-76
2021/12/19 10:00:09;;;;;;;0.10;0.10;;;;;;;5.92;90.12;103517.59;5076939;28;20054;-75
2021/12/19 10:02:34;;;;;;;0.10;0.10;;;;;;;5.95;90.10;103520.47;5077094;28;20032;-75
2021/12/19 10:05:17;;;;;;;0.00;0.00;;;;;;;5.98;89.67;103517.22;5043239;28;20036;-75
2021/12/19 10:07:57;;;;;;;0.10;0.10;;;;;;;5.95;89.92;103512.66;5053803;28;20029;-76
2021/12/19 10:10:54;;;;;;;0.10;0.10;;;;;;;5.95;89.05;103512.66;5077130;28;20310;-78
2021/12/19 10:13:33;;;;;;;0.10;0.10;;;;;;;5.93;88.79;103508.09;5076693;28;20677;-75
2021/12/19 10:15:59;;;;;;;0.10;0.10;;;;;;;5.91;88.69;103503.66;5060258;28;20015;-75
2021/12/19 10:18:24;;;;;;;0.00;0.00;;;;;;;5.90;88.72;103499.25;5059949;28;20016;-75
2021/12/19 10:20:58;;;;;;;0.00;0.00;;;;;;;5.92;88.93;103496.78;5059845;28;20024;-75
2021/12/19 10:23:29;;;;;;;0.03;0.03;;;;;;;5.94;89.15;103496.91;5043232;28;20109;-76
2021/12/19 10:26:09;;;;;;;0.10;0.10;;;;;;;5.97;88.96;103498.09;5057189;28;20041;-75
2021/12/19 10:28:53;;;;;;;0.00;0.00;;;;;;;5.97;89.02;103492.88;5056726;28;20024;-74
2021/12/19 10:31:19;;;;;;;0.10;0.10;;;;;;;5.96;88.99;103493.66;5056935;28;20020;-75
2021/12/19 10:33:45;;;;;;;0.10;0.10;;;;;;;5.97;88.88;103492.88;5056964;28;20039;-75
2021/12/19 10:36:11;;;;;;;0.10;0.10;;;;;;;5.97;89.06;103486.78;5064483;28;20025;-76
2021/12/19 10:38:39;;;;;;;0.10;0.10;;;;;;;5.98;88.85;103486.91;5064303;28;20334;-75
2021/12/19 10:41:18;;;;;;;0.07;0.07;;;;;;;5.99;89.17;103487.84;5048769;28;20028;-76
2021/12/19 10:46:44;;;;;;;0.00;0.00;;;;;;;5.99;89.05;103470.53;5073834;28;20041;-76
2021/12/19 10:49:32;;;;;;;0.00;0.00;;;;;;;6.00;89.04;103468.84;5076461;28;20036;-75
2021/12/19 10:52:04;;;;;;;0.07;0.07;;;;;;;6.02;89.29;103459.50;5074563;28;20086;-77
2021/12/19 10:54:30;;;;;;;0.10;0.10;;;;;;;6.08;89.23;103459.13;5059764;28;20066;-76
2021/12/19 10:57:10;;;;;;;0.10;0.10;;;;;;;6.07;88.71;103447.84;5076915;28;20016;-75
2021/12/19 10:59:36;;;;;;;0.10;0.10;;;;;;;6.08;89.04;103446.13;5075700;28;20043;-75
2021/12/19 11:02:02;;;;;;;0.10;0.10;;;;;;;6.09;89.04;103445.38;5076630;28;20044;-78
2021/12/19 11:04:27;;;;;;;0.00;0.00;;;;;;;6.10;89.05;103442.00;5058527;28;20081;-75
2021/12/19 11:06:54;;;;;;;0.10;0.10;;;;;;;6.10;88.32;103432.50;5074124;28;20115;-75
2021/12/19 11:09:34;;;;;;;0.10;0.10;;;;;;;6.15;88.11;103440.69;5056459;28;20408;-75
2021/12/19 11:12:05;;;;;;;0.10;0.10;;;;;;;6.14;88.02;103436.28;5056005;28;20426;-74
2021/12/19 11:14:33;;;;;;;0.13;0.13;;;;;;;6.15;87.75;103425.09;5055689;28;20311;-75
2021/12/19 11:17:06;;;;;;;0.10;0.10;;;;;;;6.14;87.64;103423.28;5060739;28;20024;-74
2021/12/19 11:19:32;;;;;;;0.13;0.13;;;;;;;6.14;87.68;103424.19;5075870;28;20286;-76
2021/12/19 11:21:58;;;;;;;0.10;0.10;;;;;;;6.16;87.75;103421.75;5076531;28;20052;-75
2021/12/19 11:24:24;;;;;;;0.10;0.10;;;;;;;6.16;87.10;103411.34;5075899;28;20134;-75
2021/12/19 11:26:53;;;;;;;0.20;0.20;;;;;;;6.17;87.05;103415.75;5075990;28;20064;-74
2021/12/19 11:29:19;;;;;;;0.20;0.20;;;;;;;6.21;87.08;103411.72;5058177;28;20280;-76
2021/12/19 11:31:47;;;;;;;0.10;0.10;;;;;;;6.19;86.38;103412.47;5041820;28;20032;-74
2021/12/19 11:34:19;;;;;;;0.10;0.10;;;;;;;6.20;86.22;103405.59;5076340;28;20378;-75
2021/12/19 11:36:48;;;;;;;0.20;0.20;;;;;;;6.15;85.54;103400.00;5075416;28;20040;-76
2021/12/19 11:39:14;;;;;;;0.20;0.20;;;;;;;6.15;85.49;103394.78;5057376;28;20477;-74
2021/12/19 11:42:00;;;;;;;0.20;0.20;;;;;;;6.14;85.63;103397.25;5076103;28;20024;-74
2021/12/19 11:44:32;;;;;;;0.10;0.10;;;;;;;6.12;85.35;103393.59;5074521;28;20024;-75
2021/12/19 11:46:59;;;;;;;0.17;0.17;;;;;;;6.12;85.26;103384.13;5075676;28;20123;-75
2021/12/19 11:49:27;;;;;;;0.10;0.10;;;;;;;6.12;85.09;103384.13;5058563;28;20104;-76
2021/12/19 11:52:25;;;;;;;0.10;0.10;;;;;;;6.10;85.12;103380.47;5076080;28;20028;-75
2021/12/19 11:55:18;;;;;;;0.30;0.30;;;;;;;6.11;85.46;103382.28;5076124;28;20029;-73
2021/12/19 11:58:09;;;;;;;0.10;0.10;;;;;;;6.13;85.30;103374.63;5075040;28;20491;-75
2021/12/19 12:00:34;;;;;;;0.20;0.20;;;;;;;6.14;85.88;103374.75;5058131;28;20130;-73
2021/12/19 12:03:12;;;;;;;0.20;0.20;;;;;;;6.15;85.88;103371.38;5075658;28;20029;-73
2021/12/19 12:05:45;;;;;;;0.10;0.10;;;;;;;6.15;85.79;103381.78;5058263;28;20029;-74
2021/12/19 12:08:15;;;;;;;0.20;0.20;;;;;;;6.14;85.71;103371.22;5068054;28;20040;-74
2021/12/19 12:10:50;;;;;;;0.10;0.10;;;;;;;6.13;85.96;103374.63;5073735;28;20036;-72
2021/12/19 12:13:25;;;;;;;0.20;0.20;;;;;;;6.14;86.11;103366.97;5075050;28;20024;-73
2021/12/19 12:15:58;;;;;;;0.20;0.20;;;;;;;6.17;86.32;103372.41;5076103;28;20263;-76
2021/12/19 12:18:34;;;;;;;0.20;0.20;;;;;;;6.18;85.64;103363.81;5076039;28;20383;-75
2021/12/19 12:21:18;;;;;;;0.10;0.10;;;;;;;6.16;85.04;103359.28;5075165;28;20382;-74
2021/12/19 12:24:02;;;;;;;0.10;0.10;;;;;;;6.14;84.73;103350.41;5075197;28;20024;-75
2021/12/19 12:26:47;;;;;;;0.20;0.20;;;;;;;6.13;84.74;103362.53;5075838;28;20123;-73
2021/12/19 12:29:13;;;;;;;0.20;0.20;;;;;;;6.12;83.97;103362.38;5075404;28;20029;-73
2021/12/19 12:31:40;;;;;;;1.30;1.27;;;;;;;6.07;83.74;103363.66;5076109;28;20036;-74
2021/12/19 12:34:11;;;;;;;0.20;0.20;;;;;;;6.03;84.06;103357.28;5078986;28;20111;-72
2021/12/19 12:36:36;;;;;;;0.20;0.20;;;;;;;5.96;84.13;103355.81;5061982;28;20084;-73
2021/12/19 12:39:08;;;;;;;0.27;0.27;;;;;;;5.93;84.18;103354.63;5061955;28;20036;-75
2021/12/19 12:44:17;;;;;;;0.20;0.20;;;;;;;5.87;83.91;103352.41;5061479;28;20038;-73
2021/12/19 12:46:42;;;;;;;0.10;0.10;;;;;;;5.84;84.54;103345.25;5078792;28;20051;-72
2021/12/19 12:49:13;;;;;;;0.20;0.20;;;;;;;5.83;84.21;103348.63;5061535;28;20036;-73
2021/12/19 12:51:49;;;;;;;0.20;0.20;;;;;;;5.83;83.38;103343.44;5078683;28;20032;-73
2021/12/19 12:54:22;;;;;;;0.20;0.20;;;;;;;5.80;83.62;103347.44;5061227;28;20090;-73
2021/12/19 12:56:50;;;;;;;0.20;0.20;;;;;;;5.77;83.57;103342.88;5061263;28;20048;-73
2021/12/19 12:59:24;;;;;;;0.23;0.23;;;;;;;5.75;83.51;103339.25;5071764;28;20357;-73
2021/12/19 13:02:08;;;;;;;0.10;0.10;;;;;;;5.75;84.03;103336.63;5072152;28;20036;-71